Time;durP1;ratioP1;P1;durP2;ratioP2;P2;SDS_P1;SDS_P2;PMS_P1;PMS_P2;Temp;Humidity;BMP_temperature;BMP_pressure;BME280_temperature;BME280_humidity;BME280_pressure;Samples;Min_cycle;Max_cycle;Signal;HPM_P1;HPM_P2
2021/03/15 00:00:11;;;;;;;16.87;5.90;;;;;;;6.60;68.18;100277.66;5080167;28;20501;-70
2021/03/15 00:02:38;;;;;;;20.20;5.77;;;;;;;6.54;68.86;100287.94;5080532;28;20404;-70
2021/03/15 00:05:05;;;;;;;11.63;5.70;;;;;;;6.64;68.16;100279.47;5080134;28;20693;-70
2021/03/15 00:07:30;;;;;;;11.07;5.43;;;;;;;6.42;69.58;100291.16;5079921;28;20419;-71
2021/03/15 00:09:55;;;;;;;15.17;5.53;;;;;;;6.83;68.71;100285.00;5080397;28;20416;-70
2021/03/15 00:12:21;;;;;;;16.90;5.67;;;;;;;7.14;67.14;100273.41;5079767;28;20443;-71
2021/03/15 00:14:46;;;;;;;18.43;5.77;;;;;;;7.53;66.55;100263.63;5079679;28;20223;-71
2021/03/15 00:17:11;;;;;;;13.60;5.43;;;;;;;7.07;68.17;100274.16;5080384;28;20204;-71
2021/03/15 00:19:36;;;;;;;14.43;5.33;;;;;;;6.77;69.55;100282.31;5079881;28;20264;-71
2021/03/15 00:22:02;;;;;;;10.90;5.13;;;;;;;6.06;70.60;100266.28;5079766;28;20245;-71
2021/03/15 00:24:27;;;;;;;13.77;7.07;;;;;;;6.38;69.89;100274.69;5080276;28;20173;-70
2021/03/15 00:26:52;;;;;;;18.63;5.93;;;;;;;6.43;70.13;100266.13;5079471;28;20227;-72
2021/03/15 00:29:21;;;;;;;12.63;5.57;;;;;;;6.59;70.24;100270.78;5079524;28;20226;-69
2021/03/15 00:31:46;;;;;;;20.90;5.73;;;;;;;6.83;69.02;100262.56;5079970;28;20157;-70
2021/03/15 00:34:11;;;;;;;15.90;4.93;;;;;;;10.54;68.16;100241.81;5079666;28;20524;-71
2021/03/15 00:36:37;;;;;;;19.47;5.80;;;;;;;10.09;59.35;100247.78;5078815;28;20279;-70
2021/03/15 00:39:02;;;;;;;17.93;7.20;;;;;;;7.93;64.13;100243.41;5080035;28;20165;-69
2021/03/15 00:41:28;;;;;;;19.63;5.73;;;;;;;7.44;65.57;100243.59;5079452;28;20172;-69
2021/03/15 00:43:53;;;;;;;16.23;5.27;;;;;;;6.84;68.11;100248.75;5083639;28;20164;-70
2021/03/15 00:46:18;;;;;;;15.63;5.40;;;;;;;6.76;68.52;100252.06;5081151;28;20169;-69
2021/03/15 00:48:43;;;;;;;11.17;4.60;;;;;;;6.65;69.04;100254.47;5079568;28;20188;-69
2021/03/15 00:51:09;;;;;;;10.00;4.57;;;;;;;6.70;68.72;100258.88;5079214;28;20169;-69
2021/03/15 00:53:34;;;;;;;16.67;5.27;;;;;;;6.67;67.91;100248.47;5079456;28;20196;-69
2021/03/15 00:55:59;;;;;;;12.87;5.00;;;;;;;6.20;69.52;100254.50;5079028;28;20172;-73
2021/03/15 00:58:25;;;;;;;10.40;4.67;;;;;;;6.65;67.86;100249.28;5079171;28;20172;-72
2021/03/15 01:00:51;;;;;;;10.33;4.63;;;;;;;6.43;68.03;100259.25;5079702;28;20215;-73
2021/03/15 01:03:16;;;;;;;12.13;4.63;;;;;;;6.10;69.54;100267.22;5079033;28;20272;-71
2021/03/15 01:05:45;;;;;;;8.07;4.57;;;;;;;6.20;69.59;100264.84;5078866;28;20221;-71
2021/03/15 01:08:11;;;;;;;6.40;4.30;;;;;;;6.45;68.58;100257.53;5079422;28;20165;-71
2021/03/15 01:10:39;;;;;;;12.13;4.57;;;;;;;6.08;69.82;100256.84;5078723;28;20419;-72
2021/03/15 01:13:05;;;;;;;10.60;3.97;;;;;;;5.99;69.41;100259.25;5061260;28;20513;-69
2021/03/15 01:15:31;;;;;;;11.50;4.50;;;;;;;6.34;68.33;100252.16;5078431;28;20411;-70
2021/03/15 01:17:56;;;;;;;8.03;4.00;;;;;;;6.40;68.65;100249.72;5078812;28;20426;-70
2021/03/15 01:20:22;;;;;;;12.27;4.10;;;;;;;6.06;68.83;100253.34;5078699;28;20468;-70
2021/03/15 01:22:47;;;;;;;9.83;4.10;;;;;;;6.34;68.78;100249.56;5079061;28;20169;-70
2021/03/15 01:25:13;;;;;;;9.47;4.00;;;;;;;6.58;67.59;100243.13;5078288;28;20168;-70
2021/03/15 01:27:39;;;;;;;10.07;4.20;;;;;;;6.58;67.39;100241.38;5078793;28;21033;-71
2021/03/15 01:30:16;;;;;;;10.20;4.30;;;;;;;6.40;67.96;100234.16;5079164;28;20498;-70
2021/03/15 01:32:41;;;;;;;11.30;4.63;;;;;;;6.57;67.73;100224.09;5077887;28;20179;-70
2021/03/15 01:35:08;;;;;;;14.23;4.60;;;;;;;6.14;69.35;100219.84;5078606;28;20834;-71
2021/03/15 01:37:33;;;;;;;10.57;4.33;;;;;;;6.52;68.84;100217.09;5078510;28;20173;-70
2021/03/15 01:39:58;;;;;;;7.93;3.70;;;;;;;6.24;69.45;100214.88;5078408;28;20850;-70
2021/03/15 01:42:24;;;;;;;9.20;4.90;;;;;;;6.27;69.56;100211.47;5078611;28;20185;-71
2021/03/15 01:44:49;;;;;;;11.37;5.47;;;;;;;6.27;69.47;100206.31;5078333;28;20181;-70
2021/03/15 01:47:15;;;;;;;11.03;4.60;;;;;;;6.13;70.39;100207.75;5078310;28;20208;-70
2021/03/15 01:49:40;;;;;;;12.50;5.53;;;;;;;6.04;71.12;100209.31;5078782;28;20199;-70
2021/03/15 01:52:06;;;;;;;14.97;5.40;;;;;;;6.09;70.73;100201.66;5078234;28;20196;-69
2021/03/15 01:54:31;;;;;;;9.13;5.90;;;;;;;6.04;71.45;100208.47;5078128;28;20204;-71
2021/03/15 01:56:57;;;;;;;13.73;5.77;;;;;;;6.29;70.55;100209.81;5077932;28;20165;-70
2021/03/15 01:59:22;;;;;;;14.63;5.70;;;;;;;6.15;71.36;100201.75;5077394;28;20538;-71
2021/03/15 02:01:48;;;;;;;11.17;5.27;;;;;;;5.97;71.85;100197.09;5077280;28;20173;-70
2021/03/15 02:04:17;;;;;;;17.10;5.60;;;;;;;6.35;69.55;100199.56;5080138;28;20176;-70
2021/03/15 02:06:44;;;;;;;10.03;5.70;;;;;;;6.06;71.43;100201.59;5081034;28;20411;-70
2021/03/15 02:09:10;;;;;;;13.07;6.23;;;;;;;6.12;70.53;100198.28;5081294;28;20486;-70
2021/03/15 02:12:08;;;;;;;10.70;5.50;;;;;;;6.30;70.53;100198.59;5081621;28;20454;-70
2021/03/15 02:15:11;;;;;;;10.63;5.60;;;;;;;6.36;70.22;100192.66;5080473;28;20466;-70
2021/03/15 02:17:53;;;;;;;13.40;6.20;;;;;;;6.49;69.92;100194.59;5081726;28;20418;-70
2021/03/15 02:20:38;;;;;;;8.93;5.33;;;;;;;6.46;69.51;100191.97;5081484;28;20431;-70
2021/03/15 02:23:23;;;;;;;15.30;5.53;;;;;;;6.25;70.60;100197.63;5080947;28;20407;-69
2021/03/15 02:26:07;;;;;;;15.57;6.33;;;;;;;6.45;70.29;100194.53;5080670;28;20459;-68
2021/03/15 02:28:58;;;;;;;17.33;5.97;;;;;;;6.66;68.66;100189.72;5081789;28;20804;-70
2021/03/15 02:31:47;;;;;;;13.83;6.57;;;;;;;6.15;70.69;100187.97;5081548;28;20801;-71
2021/03/15 02:34:45;;;;;;;13.50;6.20;;;;;;;6.29;70.17;100194.28;5080164;28;20469;-70
2021/03/15 02:37:13;;;;;;;13.80;6.83;;;;;;;6.23;70.15;100184.66;5078199;28;20461;-69
2021/03/15 02:39:40;;;;;;;14.87;6.30;;;;;;;6.20;69.92;100179.44;5081534;28;20426;-73
2021/03/15 02:42:09;;;;;;;19.20;7.07;;;;;;;6.24;70.65;100175.19;5083953;28;20438;-71
2021/03/15 02:44:36;;;;;;;12.67;5.63;;;;;;;6.03;71.23;100175.66;5077592;28;20816;-70
2021/03/15 02:47:02;;;;;;;12.33;5.63;;;;;;;6.49;69.32;100165.25;5077233;28;20467;-70
2021/03/15 02:49:28;;;;;;;13.83;6.13;;;;;;;6.15;70.57;100169.84;5076970;28;20428;-70
2021/03/15 02:51:57;;;;;;;17.90;6.90;;;;;;;6.17;70.61;100171.63;5076771;28;20568;-69
2021/03/15 02:54:23;;;;;;;15.03;5.83;;;;;;;6.55;69.48;100165.38;5078100;28;20450;-68
2021/03/15 02:56:48;;;;;;;11.77;5.27;;;;;;;6.92;69.87;100160.78;5076898;28;20430;-69
2021/03/15 02:59:15;;;;;;;10.57;6.37;;;;;;;6.71;68.43;100159.59;5078785;28;20165;-69
2021/03/15 03:01:43;;;;;;;9.67;5.90;;;;;;;6.62;69.46;100156.84;5080989;28;20462;-69
2021/03/15 03:04:09;;;;;;;11.90;6.40;;;;;;;6.77;68.38;100155.38;5080685;28;20494;-68
2021/03/15 03:06:36;;;;;;;11.57;6.27;;;;;;;6.30;70.12;100158.91;5080696;28;20872;-69
2021/03/15 03:09:02;;;;;;;14.80;6.00;;;;;;;6.67;68.86;100147.44;5081051;28;20442;-70
2021/03/15 03:11:28;;;;;;;18.20;7.47;;;;;;;6.62;68.97;100151.69;5081117;28;20419;-70
2021/03/15 03:13:54;;;;;;;17.67;6.30;;;;;;;6.33;69.55;100154.66;5080398;28;20730;-69
2021/03/15 03:16:21;;;;;;;15.03;7.40;;;;;;;6.00;70.99;100155.78;5080843;28;20407;-70
2021/03/15 03:18:49;;;;;;;11.80;5.90;;;;;;;6.45;69.24;100158.28;5080621;28;20480;-69
2021/03/15 03:21:16;;;;;;;12.30;6.00;;;;;;;6.31;70.29;100153.75;5080380;28;20694;-69
2021/03/15 03:23:42;;;;;;;15.30;7.00;;;;;;;6.25;69.70;100158.78;5080766;28;20444;-69
2021/03/15 03:26:07;;;;;;;19.87;6.83;;;;;;;6.46;69.57;100154.88;5080112;28;20484;-69
2021/03/15 03:28:33;;;;;;;13.43;6.50;;;;;;;6.34;69.71;100160.69;5080990;28;20415;-70
2021/03/15 03:31:01;;;;;;;11.20;7.20;;;;;;;6.45;69.60;100160.88;5080839;28;20173;-70
2021/03/15 03:33:26;;;;;;;12.90;6.90;;;;;;;6.26;70.13;100152.78;5080455;28;20219;-69
2021/03/15 03:35:51;;;;;;;13.53;6.43;;;;;;;6.15;70.22;100160.34;5080974;28;20415;-69
2021/03/15 03:38:17;;;;;;;13.73;8.17;;;;;;;6.16;70.57;100161.25;5081357;28;20248;-69
2021/03/15 03:40:43;;;;;;;11.53;7.93;;;;;;;6.24;70.89;100157.94;5080637;28;20177;-69
2021/03/15 03:43:09;;;;;;;10.33;7.57;;;;;;;6.40;69.59;100148.72;5080451;28;20494;-69
2021/03/15 03:45:34;;;;;;;16.23;7.47;;;;;;;6.37;69.78;100155.56;5081657;28;20687;-69
2021/03/15 03:48:00;;;;;;;13.17;7.00;;;;;;;6.03;70.86;100153.22;5081386;28;20172;-69
2021/03/15 03:50:29;;;;;;;16.97;7.90;;;;;;;5.79;71.73;100155.31;5064099;28;20261;-69
2021/03/15 03:53:09;;;;;;;16.40;8.33;;;;;;;6.39;70.38;100152.16;5080927;28;20214;-70
2021/03/15 03:55:41;;;;;;;12.37;8.00;;;;;;;6.30;70.54;100146.81;5080029;28;20425;-69
2021/03/15 03:58:07;;;;;;;8.53;6.60;;;;;;;6.06;71.19;100144.66;5080611;28;20468;-69
2021/03/15 04:00:33;;;;;;;18.70;7.97;;;;;;;6.21;70.90;100139.78;5080340;28;20415;-69
2021/03/15 04:03:27;;;;;;;16.77;7.37;;;;;;;6.27;70.48;100144.19;5079484;28;20426;-71
2021/03/15 04:05:56;;;;;;;11.80;7.53;;;;;;;6.20;71.11;100139.75;5080059;28;20192;-70
2021/03/15 04:08:25;;;;;;;13.90;7.23;;;;;;;6.27;70.84;100138.16;5080024;28;20741;-70
2021/03/15 04:10:52;;;;;;;13.40;8.37;;;;;;;6.50;70.00;100141.13;5080065;28;20754;-70
2021/03/15 04:13:19;;;;;;;14.23;9.13;;;;;;;6.42;70.30;100140.13;5080746;28;20459;-69
2021/03/15 04:15:47;;;;;;;11.50;7.03;;;;;;;6.32;70.39;100145.13;5080235;28;20403;-69
2021/03/15 04:18:14;;;;;;;9.67;6.67;;;;;;;6.54;69.56;100142.91;5080042;28;20472;-70
2021/03/15 04:20:42;;;;;;;11.37;7.87;;;;;;;6.19;70.55;100143.19;5079296;28;20506;-70
2021/03/15 04:23:10;;;;;;;15.00;7.90;;;;;;;6.21;70.42;100144.06;5079460;28;20411;-70
2021/03/15 04:25:37;;;;;;;13.30;7.00;;;;;;;6.15;70.95;100154.31;5079778;28;20450;-69
2021/03/15 04:28:04;;;;;;;7.53;6.20;;;;;;;6.25;70.50;100145.84;5079037;28;20415;-69
2021/03/15 04:30:30;;;;;;;10.10;6.90;;;;;;;6.07;71.47;100146.41;5080316;28;20453;-69
2021/03/15 04:32:55;;;;;;;13.50;6.87;;;;;;;6.27;70.36;100149.34;5078725;28;20491;-69
2021/03/15 04:35:29;;;;;;;8.43;6.10;;;;;;;6.50;70.10;100148.88;5079084;28;20199;-70
2021/03/15 04:37:57;;;;;;;12.67;8.83;;;;;;;6.35;69.44;100155.53;5082003;28;20442;-72
2021/03/15 04:40:24;;;;;;;10.97;6.60;;;;;;;5.82;71.62;100156.28;5080886;28;20433;-70
2021/03/15 04:42:50;;;;;;;9.60;5.93;;;;;;;5.59;72.81;100150.63;5078945;28;20801;-69
2021/03/15 04:45:17;;;;;;;11.00;6.20;;;;;;;5.90;70.82;100156.44;5078827;28;20458;-70
2021/03/15 04:47:42;;;;;;;8.73;6.17;;;;;;;5.49;71.88;100152.13;5078746;28;20404;-69
2021/03/15 04:50:09;;;;;;;10.10;5.50;;;;;;;5.98;70.91;100149.72;5079781;28;20444;-69
2021/03/15 04:52:36;;;;;;;8.07;6.00;;;;;;;5.71;70.98;100158.66;5078386;28;20212;-70
2021/03/15 04:55:02;;;;;;;9.10;5.87;;;;;;;5.74;71.22;100155.25;5078849;28;20423;-69
2021/03/15 04:57:28;;;;;;;8.33;5.87;;;;;;;5.96;71.01;100159.13;5079715;28;20430;-69
2021/03/15 04:59:54;;;;;;;8.77;6.47;;;;;;;6.08;69.96;100158.50;5078463;28;20191;-69
2021/03/15 05:02:20;;;;;;;9.87;5.70;;;;;;;6.19;69.76;100146.63;5079004;28;20272;-68
2021/03/15 05:04:48;;;;;;;7.03;5.70;;;;;;;5.68;70.48;100140.50;5078923;28;20406;-69
2021/03/15 05:07:13;;;;;;;7.43;5.90;;;;;;;5.95;70.35;100144.41;5078516;28;20423;-68
2021/03/15 05:09:39;;;;;;;9.07;6.00;;;;;;;5.57;71.59;100145.44;5078351;28;20480;-69
2021/03/15 05:12:05;;;;;;;10.07;5.70;;;;;;;5.72;71.50;100149.16;5079567;28;20475;-70
2021/03/15 05:14:32;;;;;;;7.40;5.93;;;;;;;5.87;70.10;100138.25;5078306;28;20477;-69
2021/03/15 05:16:58;;;;;;;8.63;5.60;;;;;;;6.07;70.32;100142.13;5078242;28;20411;-69
2021/03/15 05:19:23;;;;;;;9.20;6.03;;;;;;;6.00;70.50;100136.78;5078678;28;20445;-70
2021/03/15 05:21:48;;;;;;;9.03;5.67;;;;;;;5.77;71.41;100129.44;5077399;28;20259;-69
2021/03/15 05:24:15;;;;;;;8.13;5.40;;;;;;;6.12;69.96;100118.03;5078599;28;20181;-69
2021/03/15 05:26:41;;;;;;;7.20;5.60;;;;;;;6.14;70.17;100121.50;5078581;28;20216;-69
2021/03/15 05:29:08;;;;;;;6.73;5.40;;;;;;;6.02;70.38;100117.88;5077916;28;20426;-69
2021/03/15 05:31:34;;;;;;;8.73;5.80;;;;;;;5.78;70.45;100119.94;5078685;28;20472;-69
2021/03/15 05:33:59;;;;;;;6.70;5.33;;;;;;;6.12;70.28;100118.03;5077674;28;20566;-69
2021/03/15 05:36:25;;;;;;;5.80;4.97;;;;;;;5.67;70.99;100130.97;5077894;28;20508;-69
2021/03/15 05:38:51;;;;;;;7.80;5.10;;;;;;;5.96;70.94;100122.88;5079168;28;20177;-69
2021/03/15 05:41:16;;;;;;;6.90;5.20;;;;;;;5.78;71.71;100125.13;5078286;28;20221;-69
2021/03/15 05:43:49;;;;;;;14.67;6.50;;;;;;;5.98;70.95;100121.25;5077658;28;20169;-69
2021/03/15 05:46:31;;;;;;;6.23;5.40;;;;;;;5.96;70.94;100127.22;5078805;28;20410;-69
2021/03/15 05:49:26;;;;;;;14.93;8.20;;;;;;;5.75;71.25;100120.78;5078427;28;20411;-70
2021/03/15 05:52:03;;;;;;;12.33;8.00;;;;;;;5.59;72.10;100121.31;5078210;28;20876;-69
2021/03/15 05:55:06;;;;;;;9.27;5.90;;;;;;;5.73;71.25;100115.56;5077649;28;20462;-69
2021/03/15 05:57:44;;;;;;;8.80;6.20;;;;;;;6.14;70.73;100111.16;5078448;28;20422;-69
2021/03/15 06:00:42;;;;;;;7.57;5.50;;;;;;;6.09;71.18;100112.78;5077741;28;20411;-69
2021/03/15 06:03:18;;;;;;;10.23;5.60;;;;;;;5.73;71.78;100110.38;5078003;28;20477;-69
2021/03/15 06:05:45;;;;;;;8.20;5.73;;;;;;;5.99;71.52;100114.34;5077593;28;20506;-69
2021/03/15 06:08:21;;;;;;;8.40;6.33;;;;;;;6.28;69.73;100109.69;5077344;28;20418;-70
2021/03/15 06:11:09;;;;;;;7.73;5.33;;;;;;;6.26;70.05;100103.59;5078036;28;20438;-68
2021/03/15 06:13:35;;;;;;;7.43;5.90;;;;;;;6.44;69.44;100095.28;5078208;28;20459;-68
2021/03/15 06:16:03;;;;;;;9.77;5.53;;;;;;;6.33;69.75;100092.53;5078087;28;20464;-70
2021/03/15 06:18:29;;;;;;;11.60;6.37;;;;;;;6.52;69.02;100092.78;5078095;28;20426;-69
2021/03/15 06:20:55;;;;;;;8.47;5.87;;;;;;;6.42;69.37;100093.53;5078553;28;20828;-70
2021/03/15 06:23:20;;;;;;;9.70;6.43;;;;;;;6.77;68.26;100100.97;5077939;28;20411;-69
2021/03/15 06:25:47;;;;;;;9.47;6.63;;;;;;;6.32;69.94;100090.78;5077803;28;20546;-69
2021/03/15 06:28:13;;;;;;;8.70;6.07;;;;;;;6.67;68.90;100082.69;5078366;28;20225;-70
2021/03/15 06:30:38;;;;;;;8.80;6.47;;;;;;;6.59;68.34;100084.31;5076934;28;20415;-69
2021/03/15 06:33:05;;;;;;;9.67;6.53;;;;;;;6.52;68.91;100082.44;5077950;28;20462;-69
2021/03/15 06:35:34;;;;;;;8.60;5.93;;;;;;;6.70;68.55;100082.72;5087930;28;20175;-78
2021/03/15 06:38:01;;;;;;;13.33;6.73;;;;;;;6.57;68.85;100083.38;5082034;28;20418;-72
2021/03/15 06:40:26;;;;;;;11.87;6.30;;;;;;;6.74;69.08;100084.50;5082081;28;20461;-73
2021/03/15 06:42:53;;;;;;;10.50;6.20;;;;;;;6.54;69.16;100085.94;5082312;28;20668;-72
2021/03/15 06:45:19;;;;;;;15.00;7.10;;;;;;;6.51;69.27;100086.75;5082299;28;20165;-72
2021/03/15 06:47:46;;;;;;;26.33;9.70;;;;;;;6.61;69.05;100081.72;5081914;28;20423;-72
2021/03/15 06:50:12;;;;;;;10.97;6.10;;;;;;;6.45;69.93;100086.66;5081479;28;20460;-72
2021/03/15 06:52:53;;;;;;;13.30;5.90;;;;;;;6.28;70.34;100078.63;5081508;28;20442;-72
2021/03/15 06:55:23;;;;;;;11.20;6.47;;;;;;;6.58;70.63;100082.56;5081710;28;20787;-72
2021/03/15 06:57:50;;;;;;;11.40;5.73;;;;;;;6.56;70.10;100076.47;5083406;28;20451;-71
2021/03/15 07:00:23;;;;;;;11.10;6.00;;;;;;;6.33;70.98;100079.59;5082665;28;20504;-73
2021/03/15 07:03:00;;;;;;;10.70;7.07;;;;;;;6.38;71.34;100080.50;5081284;28;20411;-73
2021/03/15 07:05:25;;;;;;;10.33;6.43;;;;;;;6.11;72.40;100085.25;5081531;28;20505;-72
2021/03/15 07:07:53;;;;;;;11.60;6.20;;;;;;;6.35;71.00;100084.78;5081662;28;20878;-72
2021/03/15 07:10:21;;;;;;;10.53;6.37;;;;;;;6.78;70.09;100081.97;5081367;28;20440;-72
2021/03/15 07:12:47;;;;;;;13.13;6.00;;;;;;;6.38;71.97;100075.31;5081541;28;20426;-72
2021/03/15 07:15:13;;;;;;;8.90;5.50;;;;;;;6.16;72.86;100083.59;5081258;28;20415;-72
2021/03/15 07:17:39;;;;;;;9.43;5.77;;;;;;;6.55;71.36;100082.50;5081487;28;20527;-72
2021/03/15 07:20:06;;;;;;;13.97;5.77;;;;;;;6.17;72.35;100075.88;5081762;28;20407;-72
2021/03/15 07:22:32;;;;;;;9.30;6.67;;;;;;;6.79;70.68;100065.56;5080938;28;20191;-72
2021/03/15 07:25:12;;;;;;;12.80;6.10;;;;;;;6.92;71.18;100067.50;5079306;28;20419;-70
2021/03/15 07:27:39;;;;;;;10.30;6.43;;;;;;;6.88;70.18;100063.13;5079874;28;20239;-69
2021/03/15 07:30:40;;;;;;;10.40;6.30;;;;;;;6.69;71.22;100068.03;5080863;28;20419;-69
2021/03/15 07:33:15;;;;;;;12.70;6.27;;;;;;;6.60;72.19;100067.88;5080786;28;20458;-70
2021/03/15 07:35:40;;;;;;;11.10;5.70;;;;;;;6.44;72.03;100079.75;5080274;28;20424;-70
2021/03/15 07:38:06;;;;;;;10.40;5.80;;;;;;;6.55;72.61;100069.56;5080708;28;20808;-71
2021/03/15 07:40:31;;;;;;;13.10;6.43;;;;;;;6.64;71.70;100067.09;5080537;28;20195;-72
2021/03/15 07:43:02;;;;;;;10.73;6.00;;;;;;;6.36;72.57;100066.69;5080832;28;20172;-71
2021/03/15 07:45:35;;;;;;;9.90;5.83;;;;;;;6.42;72.96;100073.66;5080155;28;20181;-73
2021/03/15 07:48:11;;;;;;;6.50;5.73;;;;;;;6.48;74.14;100072.88;5079944;28;20427;-72
2021/03/15 07:50:38;;;;;;;15.07;6.33;;;;;;;6.37;73.51;100075.31;5080739;28;20415;-72
2021/03/15 07:53:07;;;;;;;12.07;6.73;;;;;;;6.31;73.63;100078.66;5080231;28;20459;-72
2021/03/15 07:55:37;;;;;;;14.67;7.17;;;;;;;6.55;73.66;100074.75;5080547;28;20419;-72
2021/03/15 07:58:05;;;;;;;13.20;6.00;;;;;;;6.56;73.96;100076.47;5080491;28;20498;-72
2021/03/15 08:00:31;;;;;;;11.40;5.77;;;;;;;6.53;73.65;100085.06;5079987;28;20433;-72
2021/03/15 08:02:57;;;;;;;8.53;5.67;;;;;;;6.83;73.32;100077.72;5079482;28;20497;-71
2021/03/15 08:05:22;;;;;;;12.87;6.37;;;;;;;6.86;73.33;100075.16;5080859;28;20180;-72
2021/03/15 08:07:48;;;;;;;10.40;5.90;;;;;;;6.49;73.86;100090.16;5080235;28;20847;-71
2021/03/15 08:10:13;;;;;;;11.50;6.07;;;;;;;6.50;73.92;100077.25;5080170;28;20173;-71
2021/03/15 08:12:39;;;;;;;10.93;5.67;;;;;;;6.84;73.42;100079.47;5080578;28;20281;-72
2021/03/15 08:15:04;;;;;;;10.30;5.67;;;;;;;7.01;71.67;100083.16;5080046;28;20243;-71
2021/03/15 08:17:30;;;;;;;12.33;6.30;;;;;;;6.90;72.73;100080.44;5079986;28;20169;-72
2021/03/15 08:19:57;;;;;;;10.40;5.83;;;;;;;7.04;72.16;100083.19;5079918;28;20173;-71
2021/03/15 08:22:31;;;;;;;13.43;6.37;;;;;;;7.12;71.75;100090.19;5079851;28;20176;-71
2021/03/15 08:24:58;;;;;;;7.83;5.43;;;;;;;6.45;74.06;100086.66;5079803;28;20426;-71
2021/03/15 08:27:29;;;;;;;11.20;5.07;;;;;;;6.87;71.86;100085.56;5079650;28;20805;-71
2021/03/15 08:30:02;;;;;;;8.93;5.30;;;;;;;7.96;69.75;100087.72;5079989;28;20526;-72
2021/03/15 08:32:31;;;;;;;10.40;6.37;;;;;;;8.17;68.65;100081.88;5082882;28;20419;-74
2021/03/15 08:34:57;;;;;;;10.43;4.90;;;;;;;7.81;69.47;100077.19;5080666;28;20475;-70
2021/03/15 08:37:48;;;;;;;10.90;5.30;;;;;;;7.32;70.75;100087.84;5079277;28;20415;-70
2021/03/15 08:40:14;;;;;;;10.53;5.10;;;;;;;7.55;70.71;100088.13;5079524;28;20210;-71
2021/03/15 08:42:39;;;;;;;9.33;4.77;;;;;;;8.16;67.90;100077.53;5079799;28;20466;-71
2021/03/15 08:45:27;;;;;;;9.40;4.70;;;;;;;8.49;68.21;100078.66;5079120;28;20269;-73
2021/03/15 08:47:53;;;;;;;11.50;4.87;;;;;;;7.88;68.96;100078.97;5079653;28;20169;-71
2021/03/15 08:50:34;;;;;;;13.90;5.77;;;;;;;7.29;71.35;100082.66;5079968;28;20416;-71
2021/03/15 08:52:59;;;;;;;10.43;5.10;;;;;;;7.80;69.75;100072.84;5079106;28;20450;-70
2021/03/15 08:55:45;;;;;;;7.77;4.73;;;;;;;7.63;70.84;100089.13;5079139;28;20415;-70
2021/03/15 08:58:41;;;;;;;12.60;6.07;;;;;;;7.46;71.06;100083.72;5079072;28;20435;-71
2021/03/15 09:01:11;;;;;;;7.67;5.10;;;;;;;8.01;69.21;100085.16;5078336;28;20522;-70
2021/03/15 09:03:59;;;;;;;14.93;6.00;;;;;;;8.24;68.01;100087.94;5079256;28;20728;-70
2021/03/15 09:06:36;;;;;;;11.30;5.63;;;;;;;8.25;68.85;100082.78;5079093;28;20424;-72
2021/03/15 09:09:07;;;;;;;11.30;5.10;;;;;;;8.36;66.89;100080.28;5079915;28;20819;-72
2021/03/15 09:11:35;;;;;;;13.73;5.00;;;;;;;9.07;65.38;100087.72;5078898;28;20680;-73
2021/03/15 09:14:16;;;;;;;12.87;5.60;;;;;;;9.18;65.18;100087.75;5078765;28;20473;-73
2021/03/15 09:16:49;;;;;;;13.00;5.83;;;;;;;8.94;66.04;100081.56;5078972;28;20443;-75
2021/03/15 09:19:18;;;;;;;10.57;4.70;;;;;;;9.39;64.29;100081.75;5079130;28;20423;-73
2021/03/15 09:22:00;;;;;;;7.77;4.30;;;;;;;9.18;65.29;100080.81;5078859;28;20419;-74
2021/03/15 09:24:47;;;;;;;8.97;4.13;;;;;;;8.67;65.39;100093.50;5078805;28;20407;-74
2021/03/15 09:27:27;;;;;;;7.10;4.53;;;;;;;8.49;66.90;100083.88;5078578;28;20545;-76
2021/03/15 09:29:57;;;;;;;8.77;3.97;;;;;;;10.66;60.28;100076.75;5078824;28;20941;-74
2021/03/15 09:32:33;;;;;;;9.00;4.43;;;;;;;10.44;60.97;100079.38;5078486;28;20415;-73
2021/03/15 09:35:01;;;;;;;8.70;4.40;;;;;;;9.66;63.88;100073.19;5078448;28;20473;-72
2021/03/15 09:37:27;;;;;;;10.43;4.50;;;;;;;9.42;63.68;100071.38;5078571;28;20408;-72
2021/03/15 09:39:56;;;;;;;10.23;4.77;;;;;;;8.34;65.89;100074.19;5078589;28;20506;-73
2021/03/15 09:42:21;;;;;;;9.83;4.13;;;;;;;8.90;64.87;100077.19;5078865;28;20857;-72
2021/03/15 09:44:47;;;;;;;9.97;4.30;;;;;;;8.00;68.26;100086.88;5078327;28;20419;-71
2021/03/15 09:47:14;;;;;;;9.33;4.30;;;;;;;7.70;69.89;100077.09;5078436;28;20173;-71
2021/03/15 09:49:41;;;;;;;11.23;4.50;;;;;;;8.20;68.80;100074.09;5078933;28;20200;-71
2021/03/15 09:52:21;;;;;;;8.77;4.20;;;;;;;8.53;67.20;100071.78;5078471;28;20431;-70
2021/03/15 09:54:56;;;;;;;10.00;4.17;;;;;;;7.71;69.55;100074.50;5078324;28;20490;-72
2021/03/15 09:57:23;;;;;;;10.73;4.87;;;;;;;7.80;69.49;100085.81;5078667;28;20468;-71
2021/03/15 09:59:49;;;;;;;9.77;4.40;;;;;;;8.49;68.60;100080.41;5077527;28;20425;-71
2021/03/15 10:02:19;;;;;;;10.63;5.43;;;;;;;8.09;69.13;100079.19;5078507;28;20477;-73
2021/03/15 10:04:44;;;;;;;14.50;4.57;;;;;;;7.93;68.75;100075.56;5079432;28;20427;-72
2021/03/15 10:07:11;;;;;;;11.10;5.83;;;;;;;9.05;66.35;100074.69;5079254;28;20649;-73
2021/03/15 10:09:38;;;;;;;14.20;4.47;;;;;;;9.22;65.62;100077.38;5079880;28;20464;-70
2021/03/15 10:12:05;;;;;;;10.67;5.07;;;;;;;9.24;64.67;100079.97;5078874;28;20469;-70
2021/03/15 10:14:30;;;;;;;12.43;4.43;;;;;;;9.62;64.28;100063.66;5078382;28;20455;-70
2021/03/15 10:16:58;;;;;;;16.60;5.10;;;;;;;9.46;64.02;100080.06;5078177;28;20473;-71
2021/03/15 10:19:28;;;;;;;9.93;4.73;;;;;;;9.61;64.13;100069.72;5078143;28;20184;-71
2021/03/15 10:21:55;;;;;;;13.17;6.43;;;;;;;9.01;65.68;100077.25;5078320;28;20407;-70
2021/03/15 10:24:33;;;;;;;16.13;5.07;;;;;;;8.54;66.88;100078.72;5079166;28;20435;-71
2021/03/15 10:26:59;;;;;;;18.90;5.70;;;;;;;8.97;65.81;100080.72;5079331;28;20476;-71
2021/03/15 10:29:25;;;;;;;11.50;5.10;;;;;;;9.17;65.62;100076.47;5079640;28;20415;-71
2021/03/15 10:31:51;;;;;;;17.80;5.50;;;;;;;8.83;65.44;100071.09;5063757;28;20256;-72
2021/03/15 10:34:17;;;;;;;18.47;5.23;;;;;;;9.80;62.20;100062.81;5078136;28;21027;-71
2021/03/15 10:36:43;;;;;;;15.40;5.47;;;;;;;10.06;61.44;100070.66;5077741;28;20543;-70
2021/03/15 10:39:08;;;;;;;15.90;5.00;;;;;;;9.52;62.17;100070.53;5077737;28;20172;-70
2021/03/15 10:41:34;;;;;;;11.87;5.60;;;;;;;10.73;60.14;100057.59;5077804;28;20378;-70
2021/03/15 10:44:00;;;;;;;12.40;5.63;;;;;;;10.42;59.50;100063.75;5078134;28;20589;-72
2021/03/15 10:46:28;;;;;;;18.50;6.90;;;;;;;11.12;58.17;100059.25;5078238;28;20473;-71
2021/03/15 10:48:54;;;;;;;14.73;5.20;;;;;;;10.88;58.75;100051.50;5079319;28;20351;-71
2021/03/15 10:51:19;;;;;;;17.60;6.60;;;;;;;10.84;57.65;100052.38;5078272;28;20389;-72
2021/03/15 10:53:48;;;;;;;15.37;5.40;;;;;;;10.60;58.78;100048.97;5078410;28;20220;-69
2021/03/15 10:56:21;;;;;;;14.50;5.10;;;;;;;9.94;60.80;100060.22;5077729;28;20242;-72
2021/03/15 10:58:48;;;;;;;16.90;6.77;;;;;;;9.54;61.35;100062.72;5077992;28;20668;-68
2021/03/15 11:01:20;;;;;;;14.97;4.80;;;;;;;9.69;61.12;100061.94;5077782;28;20418;-70
2021/03/15 11:03:46;;;;;;;15.17;5.30;;;;;;;9.78;59.47;100065.41;5077813;28;20411;-69
2021/03/15 11:06:17;;;;;;;11.50;4.83;;;;;;;10.13;59.99;100065.47;5077804;28;20422;-70
2021/03/15 11:08:55;;;;;;;11.07;5.30;;;;;;;9.59;60.51;100055.81;5077886;28;20236;-73
2021/03/15 11:11:21;;;;;;;11.27;4.90;;;;;;;9.44;60.36;100074.84;5077333;28;20443;-71
2021/03/15 11:13:48;;;;;;;18.43;5.73;;;;;;;9.39;60.76;100063.56;5077588;28;20467;-71
2021/03/15 11:16:24;;;;;;;23.00;5.90;;;;;;;9.71;59.96;100071.44;5077573;28;20492;-71
2021/03/15 11:19:08;;;;;;;11.10;4.97;;;;;;;9.35;61.16;100073.09;5077605;28;20426;-71
2021/03/15 11:21:37;;;;;;;13.33;5.20;;;;;;;9.72;59.98;100057.59;5081306;28;20407;-71
2021/03/15 11:24:04;;;;;;;16.80;6.00;;;;;;;10.27;58.40;100075.00;5081543;28;20422;-71
2021/03/15 11:26:42;;;;;;;15.03;5.20;;;;;;;9.63;61.16;100062.75;5080339;28;20466;-71
2021/03/15 11:29:07;;;;;;;9.80;4.40;;;;;;;10.61;57.04;100067.19;5081193;28;20468;-71
2021/03/15 11:31:32;;;;;;;8.77;4.30;;;;;;;11.77;53.77;100055.44;5080724;28;20411;-71
2021/03/15 11:34:00;;;;;;;9.67;4.23;;;;;;;11.70;53.40;100067.66;5080784;28;20274;-71
2021/03/15 11:36:27;;;;;;;11.50;4.30;;;;;;;11.05;56.38;100060.13;5081356;28;20169;-70